createdAt,value
2018-12-17T00:02:20.500Z,100.60
2018-12-17T00:06:31.336Z,97.37
2018-12-17T00:10:38.895Z,100.60
2018-12-17T00:14:43.935Z,94.53
2018-12-17T00:18:53.373Z,96.10
2018-12-17T00:23:05.019Z,83.57
2018-12-17T00:27:13.018Z,85.63
2018-12-17T00:31:23.272Z,84.80
2018-12-17T00:35:29.451Z,84.07
2018-12-17T00:39:34.992Z,87.33
2018-12-17T00:43:43.315Z,81.03
2018-12-17T00:47:48.252Z,84.83
2018-12-17T00:51:54.824Z,73.87
2018-12-17T00:56:03.332Z,77.53
2018-12-17T01:00:10.586Z,81.63
2018-12-17T01:04:16.257Z,92.30
2018-12-17T01:08:24.738Z,74.40
2018-12-17T01:12:30.800Z,89.73
2018-12-17T01:16:36.451Z,81.03
2018-12-17T01:20:48.756Z,96.77
2018-12-17T01:24:54.935Z,87.70
2018-12-17T01:29:03.744Z,92.33
2018-12-17T01:33:08.923Z,89.70
2018-12-17T01:37:15.574Z,91.43
2018-12-17T01:41:27.930Z,93.07
2018-12-17T01:45:33.405Z,94.40
2018-12-17T01:49:41.604Z,83.23
2018-12-17T01:53:47.242Z,87.67
2018-12-17T01:57:55.036Z,102.33
2018-12-17T02:02:08.570Z,94.47
2018-12-17T02:06:14.021Z,92.03
2018-12-17T02:10:23.835Z,91.13
2018-12-17T02:14:31.929Z,85.47
2018-12-17T02:22:45.232Z,96.90
2018-12-17T02:26:51.783Z,106.60
2018-12-17T02:35:09.928Z,96.23
2018-12-17T02:39:15.407Z,92.33
2018-12-17T02:43:23.736Z,92.90
2018-12-17T02:47:30.481Z,99.97
2018-12-17T02:55:45.731Z,94.80
2018-12-17T02:59:50.783Z,104.03
2018-12-17T03:08:05.684Z,91.03
2018-12-17T03:12:11.924Z,98.17
2018-12-17T03:16:25.968Z,98.37
2018-12-17T03:20:33.021Z,100.63
2018-12-17T03:24:39.131Z,90.83
2018-12-17T03:28:51.555Z,82.37
2018-12-17T03:32:54.745Z,89.00
2018-12-17T03:37:00.848Z,84.73
2018-12-17T03:41:10.565Z,88.60
2018-12-17T03:45:15.867Z,84.80
2018-12-17T03:49:31.340Z,86.03
2018-12-17T03:53:39.492Z,88.67
2018-12-17T03:57:51.856Z,79.33
2018-12-17T04:01:56.937Z,83.67
2018-12-17T04:06:10.083Z,80.20
2018-12-17T04:10:17.130Z,82.00
2018-12-17T04:18:36.119Z,83.93
2018-12-17T04:22:41.099Z,81.00
2018-12-17T04:26:46.275Z,84.30
2018-12-17T04:35:00.949Z,74.97
2018-12-17T04:39:07.194Z,77.50
2018-12-17T04:43:16.683Z,73.33
2018-12-17T04:47:21.763Z,75.37
2018-12-17T04:51:28.207Z,69.40
2018-12-17T04:55:37.057Z,70.53
2018-12-17T04:59:43.658Z,67.47
2018-12-17T05:03:49.112Z,69.00
2018-12-17T05:08:01.056Z,69.53
2018-12-17T05:12:06.048Z,65.37
2018-12-17T05:20:20.677Z,68.93
2018-12-17T05:24:26.391Z,62.13
2018-12-17T05:32:42.520Z,61.93
2018-12-17T05:36:48.300Z,66.10
2018-12-17T05:40:56.686Z,70.23
2018-12-17T05:45:03.998Z,70.20
2018-12-17T05:49:10.268Z,70.10
2018-12-17T05:53:23.294Z,66.57
2018-12-17T05:57:28.779Z,73.77
2018-12-17T06:01:34.046Z,74.47
2018-12-17T06:05:50.055Z,73.57
2018-12-17T06:09:55.991Z,77.87
2018-12-17T06:14:04.501Z,60.60
2018-12-17T06:18:10.155Z,82.20
2018-12-17T06:22:16.682Z,77.90
2018-12-17T06:26:22.084Z,80.30
2018-12-17T06:30:28.157Z,79.23
2018-12-17T06:34:42.806Z,82.97
2018-12-17T06:38:48.804Z,83.63
2018-12-17T06:42:57.829Z,87.57
2018-12-17T06:47:03.872Z,94.30
2018-12-17T06:51:09.268Z,84.17
2018-12-17T06:55:18.427Z,85.33
2018-12-17T06:59:24.071Z,86.07
2018-12-17T07:03:29.514Z,81.13
2018-12-17T07:07:41.854Z,88.93
2018-12-17T07:11:49.863Z,85.47
2018-12-17T07:15:58.571Z,89.20
2018-12-17T07:20:04.583Z,75.63
2018-12-17T07:24:11.960Z,81.30
2018-12-17T07:28:22.270Z,83.43
2018-12-17T07:32:27.780Z,84.13
2018-12-17T07:36:37.099Z,86.43
2018-12-17T07:40:42.913Z,96.43
2018-12-17T07:44:50.014Z,89.77
2018-12-17T07:48:59.265Z,90.27
2018-12-17T07:53:04.543Z,93.83
2018-12-17T07:57:09.759Z,93.23
2018-12-17T08:01:19.807Z,92.70
2018-12-17T08:05:25.487Z,95.53
2018-12-17T08:09:31.617Z,90.97
2018-12-17T08:13:43.450Z,94.73
2018-12-17T08:17:51.372Z,91.73
2018-12-17T08:27:14.533Z,108.53
2018-12-17T08:31:20.497Z,106.80
2018-12-17T08:35:30.088Z,111.33
2018-12-17T08:39:37.134Z,119.70
2018-12-17T08:47:51.070Z,117.53
2018-12-17T08:51:57.309Z,100.07
2018-12-17T08:56:06.736Z,126.00
2018-12-17T09:00:13.537Z,118.60
2018-12-17T09:04:18.782Z,112.03
2018-12-17T09:08:27.666Z,115.30
2018-12-17T09:12:33.841Z,111.83
2018-12-17T09:16:39.595Z,107.93
2018-12-17T09:20:48.374Z,103.07
2018-12-17T09:24:55.410Z,116.33
2018-12-17T09:29:00.617Z,102.23
2018-12-17T09:33:07.798Z,109.43
2018-12-17T09:37:13.487Z,112.03
2018-12-17T09:41:19.524Z,105.97
2018-12-17T09:45:28.892Z,112.57
2018-12-17T09:49:34.771Z,103.73
2018-12-17T09:53:40.066Z,115.07
2018-12-17T09:57:56.529Z,109.60
2018-12-17T10:02:01.516Z,109.60
2018-12-17T10:06:08.920Z,100.50
2018-12-17T10:10:13.912Z,122.83
2018-12-17T10:14:20.669Z,102.47
2018-12-17T10:18:29.224Z,119.40
2018-12-17T10:22:34.998Z,112.40
2018-12-17T10:26:41.054Z,100.67
2018-12-17T10:30:54.826Z,98.60
2018-12-17T10:34:59.971Z,105.07
2018-12-17T10:39:12.565Z,89.90
2018-12-17T10:43:19.979Z,102.23
2018-12-17T10:47:29.214Z,104.77
2018-12-17T10:51:34.254Z,106.43
2018-12-17T10:55:40.337Z,103.73
2018-12-17T10:59:54.556Z,105.87
2018-12-17T11:04:11.217Z,106.03
2018-12-17T11:08:19.038Z,102.43
2018-12-17T11:12:28.492Z,99.27
2018-12-17T11:16:34.235Z,97.37
2018-12-17T11:20:40.509Z,110.53
2018-12-17T11:24:46.128Z,100.27
2018-12-17T11:40:08.529Z,100.43
2018-12-17T11:44:14.475Z,107.83
2018-12-17T11:48:22.064Z,98.30
2018-12-17T11:58:12.934Z,96.50
2018-12-17T12:02:30.056Z,90.30
2018-12-17T12:06:35.521Z,100.47
2018-12-17T12:10:40.508Z,79.23
2018-12-17T12:14:47.678Z,70.17
2018-12-17T12:18:56.895Z,72.70
2018-12-17T12:23:02.050Z,66.90
2018-12-17T12:27:07.172Z,72.83
2018-12-17T12:31:16.751Z,73.07
2018-12-17T12:35:22.630Z,76.73
2018-12-17T12:39:27.885Z,82.83
2018-12-17T12:47:47.485Z,73.77
2018-12-17T12:51:57.178Z,81.43
2018-12-17T12:56:03.276Z,77.37
2018-12-17T13:00:11.689Z,87.00
2018-12-17T13:04:19.471Z,83.90
2018-12-17T13:08:25.525Z,85.23
2018-12-17T13:12:35.102Z,80.43
2018-12-17T13:16:40.328Z,91.43
2018-12-17T13:20:47.166Z,89.30
2018-12-17T13:25:04.451Z,80.57
2018-12-17T13:29:09.941Z,83.70
2018-12-17T13:33:15.644Z,84.10
2018-12-17T13:37:26.089Z,92.70
2018-12-17T13:41:31.903Z,94.93
2018-12-17T13:51:04.842Z,93.40
2018-12-17T13:55:09.907Z,91.90
2018-12-17T13:59:20.883Z,95.77
2018-12-17T14:03:26.026Z,96.40
2018-12-17T14:07:31.354Z,104.67
2018-12-17T14:11:46.909Z,109.80
2018-12-17T14:16:01.139Z,102.93
2018-12-17T14:20:20.615Z,112.03
2018-12-17T14:24:27.162Z,113.70
2018-12-17T14:32:42.604Z,126.57
2018-12-17T14:36:47.691Z,140.03
2018-12-17T14:40:59.233Z,130.33
2018-12-17T14:45:04.925Z,155.97
2018-12-17T14:49:10.232Z,138.70
2018-12-17T14:53:19.608Z,141.23
2018-12-17T14:57:27.866Z,141.43
2018-12-17T15:01:38.656Z,143.53
2018-12-17T15:05:44.659Z,144.37
2018-12-17T15:09:50.649Z,157.27
2018-12-17T15:14:00.004Z,165.20
2018-12-17T15:18:05.916Z,165.63
2018-12-17T15:26:24.709Z,166.27
2018-12-17T15:30:31.673Z,174.20
2018-12-17T15:34:45.433Z,174.83
2018-12-17T15:38:51.352Z,224.70
2018-12-17T15:42:57.133Z,212.87
2018-12-17T15:47:02.393Z,204.97
2018-12-17T15:51:09.104Z,188.90
2018-12-17T15:55:18.466Z,186.27
2018-12-17T15:59:25.584Z,182.93
2018-12-17T16:03:32.632Z,184.87
2018-12-17T16:08:04.357Z,193.07
2018-12-17T16:12:09.853Z,190.47
2018-12-17T16:16:22.698Z,199.43
2018-12-17T16:20:28.526Z,195.33
2018-12-17T16:24:37.597Z,219.50
2018-12-17T16:39:27.044Z,197.63
2018-12-17T16:43:32.697Z,227.87
2018-12-17T16:47:38.264Z,222.27
2018-12-17T16:51:47.262Z,191.47
2018-12-17T16:55:56.128Z,204.37
2018-12-17T17:00:01.316Z,231.90
2018-12-17T17:04:09.201Z,210.60
2018-12-17T17:08:15.520Z,215.57
2018-12-17T17:12:23.793Z,227.13
2018-12-17T17:16:32.902Z,216.00
2018-12-17T17:20:38.344Z,216.53
2018-12-17T17:24:43.531Z,220.40
2018-12-17T17:28:53.026Z,212.17
2018-12-17T17:32:58.678Z,218.43
2018-12-17T17:37:05.005Z,216.17
2018-12-17T17:41:15.369Z,236.60
2018-12-17T17:45:21.316Z,253.87
2018-12-17T17:49:26.827Z,233.40
2018-12-17T17:57:42.371Z,247.63
2018-12-17T18:01:49.681Z,247.07
2018-12-17T18:05:58.460Z,238.37
2018-12-17T18:10:07.638Z,254.47
2018-12-17T18:14:18.172Z,251.37
2018-12-17T18:18:24.316Z,270.10
2018-12-17T18:22:30.155Z,268.37
2018-12-17T18:26:43.954Z,289.80
2018-12-17T18:30:50.062Z,260.37
2018-12-17T18:34:58.442Z,265.73
2018-12-17T18:39:04.833Z,270.57
2018-12-17T18:43:13.701Z,295.50
2018-12-17T18:47:25.468Z,301.57
2018-12-17T18:51:30.618Z,296.70
2018-12-17T18:55:42.809Z,314.10
2018-12-17T18:59:52.040Z,305.53
2018-12-17T19:04:01.365Z,316.47
2018-12-17T19:08:09.917Z,329.40
2018-12-17T19:12:20.211Z,322.63
2018-12-17T19:16:26.817Z,339.47
2018-12-17T19:20:31.948Z,323.00
2018-12-17T19:24:39.199Z,328.83
2018-12-17T19:28:45.081Z,318.67
2018-12-17T19:32:50.314Z,315.37
2018-12-17T19:36:58.654Z,297.57
2018-12-17T19:41:06.511Z,317.03
2018-12-17T19:45:12.091Z,310.40
2018-12-17T19:49:21.718Z,303.30
2018-12-17T19:53:27.730Z,336.83
2018-12-17T19:57:33.943Z,315.57
2018-12-17T20:01:43.132Z,319.00
2018-12-17T20:05:49.043Z,324.20
2018-12-17T20:09:54.157Z,328.30
2018-12-17T20:14:04.918Z,325.37
2018-12-17T20:18:09.982Z,355.07
2018-12-17T20:22:15.950Z,325.00
2018-12-17T20:26:21.004Z,341.20
2018-12-17T20:34:37.161Z,338.47
2018-12-17T20:38:43.049Z,340.70
2018-12-17T20:42:52.081Z,351.43
2018-12-17T20:46:58.259Z,338.83
2018-12-17T20:51:04.521Z,330.73
2018-12-17T20:55:18.166Z,310.93
2018-12-17T20:59:23.220Z,342.07
2018-12-17T21:03:39.330Z,396.83
2018-12-17T21:07:44.468Z,357.33
2018-12-17T21:11:49.785Z,353.10
2018-12-17T21:15:54.956Z,380.27
2018-12-17T21:20:00.779Z,414.37
2018-12-17T21:24:06.232Z,419.53
2018-12-17T21:28:13.725Z,413.53
2018-12-17T21:32:19.026Z,458.47
2018-12-17T21:36:24.948Z,435.73
2018-12-17T21:40:36.958Z,424.30
2018-12-17T21:44:46.778Z,412.60
2018-12-17T21:48:59.684Z,394.93
2018-12-17T21:53:16.396Z,389.43
2018-12-17T21:57:27.238Z,397.80
2018-12-17T22:01:42.625Z,374.63
2018-12-17T22:06:03.927Z,374.40
2018-12-17T22:10:25.659Z,365.57
2018-12-17T22:14:38.968Z,375.10
2018-12-17T22:18:53.493Z,342.43
2018-12-17T22:23:07.879Z,348.93
2018-12-17T22:27:27.779Z,342.90
2018-12-17T22:31:44.164Z,372.33
2018-12-17T22:40:02.046Z,335.73
2018-12-17T22:44:11.337Z,353.17
2018-12-17T22:48:19.587Z,331.17
2018-12-17T22:52:25.531Z,328.67
2018-12-17T22:56:30.673Z,325.93
2018-12-17T23:00:44.051Z,341.20
2018-12-17T23:04:50.922Z,321.50
2018-12-17T23:09:06.471Z,345.07
2018-12-17T23:13:24.229Z,371.43
2018-12-17T23:17:43.093Z,378.77
2018-12-17T23:21:49.996Z,350.37
2018-12-17T23:26:00.700Z,378.13
2018-12-17T23:30:08.483Z,358.53
2018-12-17T23:34:20.070Z,363.43
2018-12-17T23:38:25.583Z,361.90
2018-12-17T23:42:31.618Z,390.03
2018-12-17T23:46:40.110Z,405.57
2018-12-17T23:50:45.979Z,379.33
2018-12-17T23:54:51.636Z,372.13
2018-12-17T23:59:00.106Z,391.17
